createdAt,value
2019-05-15T00:00:55.779Z,61.42
2019-05-15T00:03:23.460Z,61.12
2019-05-15T00:05:50.523Z,60.26
2019-05-15T00:08:18.337Z,60.33
2019-05-15T00:10:47.796Z,60.44
2019-05-15T00:13:14.626Z,60.40
2019-05-15T00:15:41.644Z,60.80
2019-05-15T00:18:08.964Z,60.21
2019-05-15T00:20:39.116Z,59.48
2019-05-15T00:23:05.801Z,59.23
2019-05-15T00:25:32.865Z,59.33
2019-05-15T00:28:01.933Z,59.58
2019-05-15T00:30:29.254Z,59.54
2019-05-15T00:32:58.922Z,61.25
2019-05-15T00:35:28.613Z,63.06
2019-05-15T00:37:55.074Z,64.23
2019-05-15T00:40:22.091Z,64.88
2019-05-15T00:42:49.166Z,65.13
2019-05-15T00:45:18.486Z,65.35
2019-05-15T00:47:48.650Z,65.74
2019-05-15T00:50:18.334Z,65.56
2019-05-15T00:52:45.490Z,65.21
2019-05-15T00:55:15.900Z,64.86
2019-05-15T00:57:45.030Z,64.33
2019-05-15T01:00:12.578Z,64.25
2019-05-15T01:02:39.721Z,63.85
2019-05-15T01:05:09.023Z,63.67
2019-05-15T01:07:39.274Z,63.59
2019-05-15T01:10:09.549Z,63.94
2019-05-15T01:12:38.031Z,64.18
2019-05-15T01:15:05.564Z,64.60
2019-05-15T01:17:34.518Z,64.65
2019-05-15T01:20:03.046Z,64.90
2019-05-15T01:22:30.063Z,64.70
2019-05-15T01:24:58.950Z,64.53
2019-05-15T01:27:26.083Z,64.84
2019-05-15T01:29:53.193Z,64.95
2019-05-15T01:32:20.267Z,64.85
2019-05-15T01:34:49.044Z,65.05
2019-05-15T01:37:18.745Z,65.19
2019-05-15T01:39:48.413Z,65.26
2019-05-15T01:42:18.617Z,65.18
2019-05-15T01:44:48.247Z,65.19
2019-05-15T01:47:14.980Z,65.33
2019-05-15T01:49:42.186Z,65.26
2019-05-15T01:52:09.556Z,65.66
2019-05-15T01:54:38.376Z,65.86
2019-05-15T01:57:05.597Z,66.03
2019-05-15T01:59:32.769Z,66.01
2019-05-15T02:01:59.863Z,66.01
2019-05-15T02:04:29.010Z,65.79
2019-05-15T02:06:58.752Z,65.65
2019-05-15T02:09:25.239Z,65.87
2019-05-15T02:11:52.299Z,66.26
2019-05-15T02:14:19.349Z,66.77
2019-05-15T02:16:48.363Z,67.16
2019-05-15T02:19:15.699Z,67.53
2019-05-15T02:21:42.743Z,67.11
2019-05-15T02:24:09.911Z,66.80
2019-05-15T02:26:38.863Z,66.92
2019-05-15T02:29:07.855Z,66.81
2019-05-15T02:31:35.225Z,67.06
2019-05-15T02:34:02.350Z,67.23
2019-05-15T02:36:29.588Z,67.39
2019-05-15T02:38:59.645Z,66.98
2019-05-15T02:41:29.824Z,67.05
2019-05-15T02:43:59.181Z,67.41
2019-05-15T02:46:26.157Z,67.63
2019-05-15T02:48:53.290Z,68.31
2019-05-15T02:51:20.338Z,68.46
2019-05-15T02:53:49.948Z,68.58
2019-05-15T02:56:20.703Z,68.63
2019-05-15T02:58:50.569Z,68.36
2019-05-15T03:01:19.020Z,67.60
2019-05-15T03:03:49.441Z,67.43
2019-05-15T03:06:19.030Z,67.02
2019-05-15T03:08:49.691Z,67.22
2019-05-15T03:11:19.195Z,67.76
2019-05-15T03:13:49.984Z,67.90
2019-05-15T03:16:15.444Z,68.45
2019-05-15T03:18:42.772Z,68.54
2019-05-15T03:21:10.069Z,69.17
2019-05-15T03:23:40.450Z,69.21
2019-05-15T03:26:08.806Z,69.05
2019-05-15T03:28:35.263Z,68.58
2019-05-15T03:31:22.551Z,68.72
2019-05-15T03:33:36.251Z,68.89
2019-05-15T03:36:02.982Z,68.91
2019-05-15T03:38:30.170Z,68.72
2019-05-15T03:40:59.530Z,68.83
2019-05-15T03:43:28.966Z,68.62
2019-05-15T03:45:56.225Z,68.45
2019-05-15T03:48:23.273Z,67.94
2019-05-15T03:50:50.295Z,67.81
2019-05-15T03:53:19.253Z,67.68
2019-05-15T03:55:48.764Z,67.47
2019-05-15T03:58:15.229Z,67.20
2019-05-15T04:00:45.519Z,67.43
2019-05-15T04:03:12.681Z,67.07
2019-05-15T04:05:40.840Z,66.67
2019-05-15T04:08:11.022Z,67.01
2019-05-15T04:10:39.693Z,66.91
2019-05-15T04:13:09.060Z,66.10
2019-05-15T04:15:34.798Z,65.62
2019-05-15T04:18:01.935Z,65.81
2019-05-15T04:20:30.450Z,65.52
2019-05-15T04:23:00.390Z,65.32
2019-05-15T04:25:29.655Z,64.70
2019-05-15T04:27:59.952Z,64.93
2019-05-15T04:30:27.003Z,64.28
2019-05-15T04:32:54.036Z,63.66
2019-05-15T04:35:21.925Z,62.70
2019-05-15T04:37:49.611Z,63.02
2019-05-15T04:40:19.330Z,63.40
2019-05-15T04:42:49.823Z,63.75
2019-05-15T04:45:19.201Z,62.78
2019-05-15T04:47:49.767Z,61.62
2019-05-15T04:50:19.199Z,62.11
2019-05-15T04:52:54.924Z,62.20
2019-05-15T04:55:35.887Z,62.58
2019-05-15T04:58:09.846Z,61.28
2019-05-15T05:00:49.518Z,60.74
2019-05-15T05:03:22.708Z,60.66
2019-05-15T05:05:50.648Z,59.61
2019-05-15T05:08:20.083Z,58.64
2019-05-15T05:10:48.796Z,58.17
2019-05-15T05:13:19.406Z,58.77
2019-05-15T05:15:44.978Z,58.20
2019-05-15T05:18:12.193Z,58.43
2019-05-15T05:20:39.482Z,58.50
2019-05-15T05:23:08.554Z,57.71
2019-05-15T05:25:35.906Z,58.32
2019-05-15T05:28:02.967Z,57.41
2019-05-15T05:30:30.024Z,56.57
2019-05-15T05:32:58.163Z,56.88
2019-05-15T05:35:27.887Z,56.62
2019-05-15T05:37:58.312Z,54.90
2019-05-15T05:40:25.388Z,55.64
2019-05-15T05:42:52.469Z,54.80
2019-05-15T05:45:19.897Z,53.61
2019-05-15T05:47:48.670Z,53.58
2019-05-15T05:50:33.319Z,53.03
2019-05-15T05:53:00.469Z,52.70
2019-05-15T05:55:28.725Z,52.91
2019-05-15T05:57:58.323Z,53.48
2019-05-15T06:00:32.717Z,52.50
2019-05-15T06:02:59.795Z,52.29
2019-05-15T06:05:28.095Z,51.24
2019-05-15T06:07:58.220Z,50.03
2019-05-15T06:10:25.704Z,50.88
2019-05-15T06:12:52.746Z,50.16
2019-05-15T06:15:19.849Z,48.71
2019-05-15T06:17:48.108Z,48.56
2019-05-15T06:20:15.267Z,47.53
2019-05-15T06:22:42.386Z,48.46
2019-05-15T06:25:11.710Z,48.59
2019-05-15T06:27:43.406Z,47.59
2019-05-15T06:30:19.252Z,46.05
2019-05-15T06:32:41.656Z,47.01
2019-05-15T06:35:10.047Z,43.97
2019-05-15T06:37:39.501Z,43.26
2019-05-15T06:40:08.440Z,43.66
2019-05-15T06:42:39.273Z,42.53
2019-05-15T06:45:08.099Z,44.25
2019-05-15T06:47:35.245Z,44.92
2019-05-15T06:50:03.622Z,44.67
2019-05-15T06:52:31.926Z,43.69
2019-05-15T06:54:59.381Z,42.88
2019-05-15T06:57:28.700Z,41.83
2019-05-15T06:59:57.831Z,41.53
2019-05-15T07:02:24.651Z,40.72
2019-05-15T07:04:53.790Z,39.69
2019-05-15T07:07:20.924Z,40.38
2019-05-15T07:09:48.777Z,39.93
2019-05-15T07:12:18.512Z,40.23
2019-05-15T07:14:45.181Z,39.09
2019-05-15T07:17:12.258Z,39.66
2019-05-15T07:19:39.502Z,37.97
2019-05-15T07:22:09.193Z,37.28
2019-05-15T07:24:38.222Z,37.03
2019-05-15T07:27:07.871Z,36.61
2019-05-15T07:29:35.557Z,37.68
2019-05-15T07:32:02.793Z,38.69
2019-05-15T07:34:32.999Z,37.40
2019-05-15T07:37:01.803Z,36.47
2019-05-15T07:39:30.026Z,38.41
2019-05-15T07:41:57.823Z,35.51
2019-05-15T07:44:28.189Z,35.57
2019-05-15T07:46:58.347Z,35.79
2019-05-15T07:49:25.778Z,36.16
2019-05-15T07:51:59.580Z,35.38
2019-05-15T07:54:29.621Z,35.84
2019-05-15T07:56:58.192Z,33.72
2019-05-15T07:59:27.802Z,34.05
2019-05-15T08:01:54.508Z,35.71
2019-05-15T08:04:28.759Z,33.50
2019-05-15T08:06:50.690Z,32.88
2019-05-15T08:09:18.121Z,33.83
2019-05-15T08:11:45.242Z,33.89
2019-05-15T08:14:12.514Z,33.74
2019-05-15T08:16:39.874Z,32.16
2019-05-15T08:19:08.660Z,33.29
2019-05-15T08:21:38.560Z,33.85
2019-05-15T08:24:08.379Z,31.99
2019-05-15T08:26:37.788Z,31.76
2019-05-15T08:29:04.357Z,31.06
2019-05-15T08:31:33.781Z,30.52
2019-05-15T08:34:13.554Z,29.77
2019-05-15T08:41:05.457Z,29.98
2019-05-15T08:43:38.087Z,31.58
2019-05-15T08:46:08.263Z,30.10
2019-05-15T08:48:35.303Z,29.69
2019-05-15T08:51:02.798Z,29.06
2019-05-15T08:53:29.808Z,31.19
2019-05-15T08:55:58.826Z,31.69
2019-05-15T08:58:26.194Z,30.61
2019-05-15T09:00:53.594Z,29.36
2019-05-15T09:03:20.953Z,30.92
2019-05-15T09:05:48.748Z,31.07
2019-05-15T09:08:18.851Z,30.34
2019-05-15T09:10:44.962Z,29.75
2019-05-15T09:13:12.084Z,31.54
2019-05-15T09:15:39.668Z,32.70
2019-05-15T09:18:14.992Z,32.56
2019-05-15T09:20:38.363Z,31.15
2019-05-15T09:23:05.040Z,30.77
2019-05-15T09:25:32.117Z,31.58
2019-05-15T09:27:59.189Z,31.88
2019-05-15T09:30:28.473Z,31.37
2019-05-15T09:32:55.140Z,30.96
2019-05-15T09:35:22.219Z,31.04
2019-05-15T09:37:49.330Z,30.39
2019-05-15T09:40:18.881Z,29.91
2019-05-15T09:42:48.508Z,31.56
2019-05-15T09:45:15.279Z,31.58
2019-05-15T09:47:44.275Z,32.24
2019-05-15T09:50:12.670Z,31.67
2019-05-15T09:52:39.773Z,30.62
2019-05-15T09:55:08.694Z,29.78
2019-05-15T09:57:38.635Z,30.00
2019-05-15T10:00:08.950Z,29.02
2019-05-15T10:02:39.396Z,29.01
2019-05-15T10:05:10.980Z,29.30
2019-05-15T10:07:36.581Z,26.96
2019-05-15T10:10:04.447Z,25.66
2019-05-15T10:12:34.918Z,25.72
2019-05-15T10:15:00.591Z,27.57
2019-05-15T10:17:29.072Z,27.79
2019-05-15T10:19:58.227Z,25.32
2019-05-15T10:22:28.170Z,24.22
2019-05-15T10:24:54.937Z,25.31
2019-05-15T10:27:22.149Z,25.43
2019-05-15T10:29:49.148Z,23.98
2019-05-15T10:32:19.255Z,27.06
2019-05-15T10:34:46.770Z,25.08
2019-05-15T10:37:13.907Z,24.92
2019-05-15T10:39:40.932Z,26.05
2019-05-15T10:42:10.125Z,26.35
2019-05-15T10:44:39.353Z,26.91
2019-05-15T10:47:08.913Z,27.02
2019-05-15T10:49:36.152Z,28.20
2019-05-15T10:52:03.224Z,28.35
2019-05-15T10:54:30.302Z,29.15
2019-05-15T10:57:00.510Z,30.48
2019-05-15T10:59:27.698Z,30.81
2019-05-15T11:01:59.035Z,30.86
2019-05-15T11:04:28.676Z,29.65
2019-05-15T11:07:03.627Z,30.20
2019-05-15T11:09:30.683Z,30.46
2019-05-15T11:11:58.366Z,31.44
2019-05-15T11:14:25.685Z,30.00
2019-05-15T11:16:52.756Z,30.47
2019-05-15T11:19:20.090Z,30.96
2019-05-15T11:21:49.250Z,26.70
2019-05-15T11:24:16.566Z,26.06
2019-05-15T11:26:43.798Z,23.29
2019-05-15T11:29:10.901Z,22.39
2019-05-15T11:31:39.350Z,22.79
2019-05-15T11:34:09.172Z,22.16
2019-05-15T11:36:38.501Z,22.38
2019-05-15T11:39:08.406Z,24.56
2019-05-15T11:41:38.473Z,24.37
2019-05-15T11:44:10.367Z,23.19
2019-05-15T11:46:41.422Z,21.35
2019-05-15T11:49:11.273Z,20.63
2019-05-15T11:51:38.499Z,20.98
2019-05-15T11:54:08.050Z,20.47
2019-05-15T11:56:34.942Z,20.63
2019-05-15T11:59:02.058Z,22.28
2019-05-15T12:01:29.468Z,19.58
2019-05-15T12:03:58.537Z,19.24
2019-05-15T12:06:26.079Z,20.63
2019-05-15T12:08:53.523Z,22.56
2019-05-15T12:11:31.108Z,20.83
2019-05-15T12:13:49.866Z,22.24
2019-05-15T12:16:17.331Z,20.95
2019-05-15T12:18:44.548Z,23.99
2019-05-15T12:21:19.622Z,23.28
2019-05-15T12:23:44.045Z,20.59
2019-05-15T12:26:12.958Z,20.60
2019-05-15T12:28:40.558Z,21.01
2019-05-15T12:31:08.964Z,19.51
2019-05-15T12:33:38.621Z,19.01
2019-05-15T12:36:14.846Z,21.24
2019-05-15T12:38:42.128Z,21.87
2019-05-15T13:01:16.546Z,17.04
2019-05-15T13:03:35.382Z,21.86
2019-05-15T13:06:10.891Z,19.74
2019-05-15T13:08:38.625Z,19.35
2019-05-15T13:11:09.648Z,18.50
2019-05-15T13:13:35.030Z,19.10
2019-05-15T13:16:02.186Z,18.85
2019-05-15T13:18:29.692Z,17.88
2019-05-15T13:20:59.180Z,22.77
2019-05-15T13:23:28.814Z,23.63
2019-05-15T13:25:59.122Z,23.87
2019-05-15T13:28:28.998Z,22.15
2019-05-15T13:30:55.916Z,17.84
2019-05-15T13:33:23.112Z,18.49
2019-05-15T13:35:50.190Z,23.08
2019-05-15T13:38:33.668Z,25.86
2019-05-15T13:41:00.801Z,24.49
2019-05-15T13:43:29.821Z,22.56
2019-05-15T13:45:58.132Z,22.02
2019-05-15T13:48:25.146Z,21.63
2019-05-15T13:50:59.168Z,21.64
2019-05-15T13:53:30.312Z,21.66
2019-05-15T13:55:57.487Z,21.91
2019-05-15T13:58:29.742Z,19.83
2019-05-15T14:00:58.847Z,19.09
2019-05-15T14:03:28.271Z,19.46
2019-05-15T14:05:58.302Z,22.67
2019-05-15T14:08:34.602Z,26.51
2019-05-15T14:11:08.623Z,23.94
2019-05-15T14:13:35.372Z,20.89
2019-05-15T14:16:05.049Z,19.62
2019-05-15T14:18:32.565Z,19.95
2019-05-15T14:20:59.635Z,20.71
2019-05-15T14:23:29.358Z,24.03
2019-05-15T14:25:58.686Z,21.35
2019-05-15T14:28:28.189Z,20.23
2019-05-15T14:30:58.196Z,20.00
2019-05-15T14:33:29.247Z,21.46
2019-05-15T14:35:58.270Z,20.87
2019-05-15T14:38:25.753Z,22.85
2019-05-15T14:40:59.118Z,20.20
2019-05-15T14:43:32.642Z,22.49
2019-05-15T14:46:01.847Z,22.31
2019-05-15T14:48:31.258Z,23.50
2019-05-15T14:50:59.992Z,21.44
2019-05-15T14:53:30.254Z,21.94
2019-05-15T14:56:00.436Z,22.36
2019-05-15T14:58:27.779Z,22.68
2019-05-15T15:00:55.116Z,23.49
2019-05-15T15:03:23.343Z,23.75
2019-05-15T15:05:50.438Z,21.99
2019-05-15T15:08:24.881Z,21.63
2019-05-15T15:10:55.006Z,20.54
2019-05-15T15:13:22.990Z,18.87
2019-05-15T15:16:09.588Z,19.84
2019-05-15T15:18:48.252Z,21.79
2019-05-15T15:21:29.916Z,20.06
2019-05-15T15:24:04.443Z,20.28
2019-05-15T15:26:46.340Z,20.44
2019-05-15T15:29:19.157Z,20.02
2019-05-15T15:31:51.964Z,20.51
2019-05-15T15:34:44.941Z,19.15
2019-05-15T15:37:22.125Z,18.57
2019-05-15T15:40:05.164Z,19.56
2019-05-15T15:42:43.226Z,21.87
2019-05-15T15:45:22.671Z,21.92
2019-05-15T15:48:08.682Z,21.03
2019-05-15T15:50:48.675Z,20.03
2019-05-15T15:53:44.481Z,19.91
2019-05-15T15:56:24.998Z,20.42
2019-05-15T15:59:18.174Z,20.09
2019-05-15T16:01:49.430Z,20.03
2019-05-15T16:04:52.731Z,19.37
2019-05-15T16:10:34.799Z,22.47
2019-05-15T16:13:22.818Z,21.17
2019-05-15T16:16:00.834Z,21.84
2019-05-15T16:18:29.208Z,23.32
2019-05-15T16:20:58.000Z,22.50
2019-05-15T16:23:29.644Z,22.94
2019-05-15T16:26:01.049Z,22.19
2019-05-15T16:28:28.972Z,22.46
2019-05-15T16:30:58.557Z,23.48
2019-05-15T16:33:28.826Z,23.61
2019-05-15T16:35:57.971Z,24.51
2019-05-15T16:38:25.222Z,23.71
2019-05-15T16:40:52.844Z,24.22
2019-05-15T16:43:19.958Z,23.83
2019-05-15T16:45:49.610Z,24.14
2019-05-15T16:48:18.711Z,24.63
2019-05-15T16:50:48.887Z,25.06
2019-05-15T16:53:18.302Z,25.43
2019-05-15T16:55:47.909Z,25.34
2019-05-15T16:58:14.601Z,25.04
2019-05-15T17:00:41.842Z,23.75
2019-05-15T17:03:14.742Z,23.73
2019-05-15T17:05:38.898Z,24.05
2019-05-15T17:08:08.829Z,24.53
2019-05-15T17:10:38.794Z,24.80
2019-05-15T17:13:08.733Z,24.59
2019-05-15T17:15:38.478Z,25.06
2019-05-15T17:18:08.998Z,25.22
2019-05-15T17:20:37.351Z,25.20
2019-05-15T17:23:13.827Z,25.67
2019-05-15T17:25:48.911Z,25.56
2019-05-15T17:28:20.587Z,25.97
2019-05-15T17:30:48.868Z,26.35
2019-05-15T17:33:19.051Z,26.93
2019-05-15T17:35:48.773Z,27.03
2019-05-15T17:38:18.355Z,27.74
2019-05-15T17:40:48.883Z,27.01
2019-05-15T17:43:18.311Z,27.45
2019-05-15T17:45:48.437Z,27.41
2019-05-15T17:48:15.601Z,27.62
2019-05-15T17:50:51.604Z,27.97
2019-05-15T17:53:17.967Z,27.82
2019-05-15T17:55:44.632Z,28.10
2019-05-15T17:58:12.054Z,28.19
2019-05-15T18:00:39.554Z,28.47
2019-05-15T18:03:08.782Z,28.58
2019-05-15T18:05:39.165Z,28.11
2019-05-15T18:08:08.653Z,28.60
2019-05-15T18:10:38.480Z,28.78
2019-05-15T18:13:09.456Z,29.26
2019-05-15T18:15:38.621Z,28.62
2019-05-15T18:18:09.582Z,29.17
2019-05-15T18:20:38.134Z,29.50
2019-05-15T18:23:04.624Z,29.42
2019-05-15T18:25:32.076Z,29.95
2019-05-15T18:27:59.545Z,29.73
2019-05-15T18:30:29.121Z,28.94
2019-05-15T18:32:58.945Z,29.10
2019-05-15T18:35:29.511Z,29.08
2019-05-15T18:37:59.104Z,29.34
2019-05-15T18:40:27.818Z,29.47
2019-05-15T18:42:55.377Z,29.84
2019-05-15T18:45:22.657Z,29.85
2019-05-15T18:47:58.596Z,29.94
2019-05-15T18:50:25.726Z,30.25
2019-05-15T18:52:52.851Z,30.63
2019-05-15T18:55:20.015Z,30.96
2019-05-15T18:57:50.291Z,31.03
2019-05-15T19:00:18.504Z,31.71
2019-05-15T19:02:52.048Z,32.15
2019-05-15T19:05:19.331Z,32.71
2019-05-15T19:07:48.752Z,33.33
2019-05-15T19:10:18.725Z,33.69
2019-05-15T19:12:48.404Z,34.14
2019-05-15T19:15:18.157Z,34.15
2019-05-15T19:17:47.481Z,34.47
2019-05-15T19:20:18.950Z,34.78
2019-05-15T19:22:48.419Z,34.88
2019-05-15T19:25:17.818Z,35.03
2019-05-15T19:27:44.659Z,35.21
2019-05-15T19:30:13.723Z,35.45
2019-05-15T19:32:41.264Z,35.59
2019-05-15T19:35:09.129Z,35.80
2019-05-15T19:37:38.470Z,36.17
2019-05-15T19:40:11.784Z,35.88
2019-05-15T19:42:48.644Z,36.35
2019-05-15T19:45:17.552Z,36.63
2019-05-15T19:47:47.829Z,36.44
2019-05-15T19:50:17.928Z,37.03
2019-05-15T19:52:48.239Z,37.16
2019-05-15T19:55:21.105Z,37.15
2019-05-15T19:57:48.671Z,37.45
2019-05-15T20:00:18.748Z,37.48
2019-05-15T20:02:58.132Z,37.52
2019-05-15T20:05:28.688Z,37.45
2019-05-15T20:07:58.543Z,38.11
2019-05-15T20:10:25.176Z,37.90
2019-05-15T20:12:53.119Z,38.53
2019-05-15T20:15:24.042Z,38.42
2019-05-15T20:17:52.838Z,38.23
2019-05-15T20:20:20.470Z,38.46
2019-05-15T20:22:48.268Z,38.90
2019-05-15T20:25:18.457Z,38.98
2019-05-15T20:27:47.982Z,39.17
2019-05-15T20:30:18.031Z,39.09
2019-05-15T20:32:47.988Z,38.86
2019-05-15T20:35:15.915Z,38.64
2019-05-15T20:37:45.796Z,38.44
2019-05-15T20:40:14.202Z,38.73
2019-05-15T20:42:41.512Z,39.51
2019-05-15T20:45:12.389Z,40.01
2019-05-15T20:47:40.698Z,39.40
2019-05-15T20:50:08.724Z,39.30
2019-05-15T20:52:39.342Z,39.57
2019-05-15T20:55:08.311Z,39.76
2019-05-15T20:57:40.882Z,40.34
2019-05-15T21:00:10.496Z,40.46
2019-05-15T21:02:38.711Z,40.25
2019-05-15T21:05:15.019Z,39.83
2019-05-15T21:07:43.257Z,40.11
2019-05-15T21:10:11.572Z,40.51
2019-05-15T21:12:41.833Z,40.65
2019-05-15T21:15:12.334Z,40.44
2019-05-15T21:17:41.708Z,40.24
2019-05-15T21:20:09.469Z,40.25
2019-05-15T21:22:36.885Z,40.27
2019-05-15T21:25:04.579Z,40.27
2019-05-15T21:27:33.466Z,40.31
2019-05-15T21:30:02.856Z,40.32
2019-05-15T21:32:32.142Z,40.96
2019-05-15T21:34:59.350Z,40.68
2019-05-15T21:37:27.509Z,41.01
2019-05-15T21:39:55.598Z,41.38
2019-05-15T21:42:22.672Z,41.32
2019-05-15T21:44:49.909Z,41.83
2019-05-15T21:47:18.875Z,41.41
2019-05-15T21:49:48.206Z,41.60
2019-05-15T21:52:18.538Z,41.68
2019-05-15T21:54:47.447Z,41.39
2019-05-15T21:57:32.372Z,41.52
2019-05-15T21:59:50.426Z,41.74
2019-05-15T22:02:18.190Z,41.41
2019-05-15T22:04:52.809Z,40.90
2019-05-15T22:07:17.862Z,40.98
2019-05-15T22:09:48.715Z,41.08
2019-05-15T22:12:23.195Z,41.29
2019-05-15T22:14:52.248Z,41.17
2019-05-15T22:17:19.479Z,41.56
2019-05-15T22:19:49.215Z,41.36
2019-05-15T22:22:17.955Z,41.58
2019-05-15T22:24:45.696Z,42.16
2019-05-15T22:27:13.315Z,42.77
2019-05-15T22:29:45.134Z,43.27
2019-05-15T22:32:12.708Z,42.95
2019-05-15T22:34:41.112Z,42.67
2019-05-15T22:37:09.014Z,42.52
2019-05-15T22:39:38.422Z,43.47
2019-05-15T22:42:05.659Z,43.51
2019-05-15T22:44:33.038Z,43.33
2019-05-15T22:47:00.150Z,44.20
2019-05-15T22:49:28.842Z,44.49
2019-05-15T22:51:58.134Z,44.46
2019-05-15T22:54:25.147Z,44.12
2019-05-15T22:56:52.195Z,44.28
2019-05-15T22:59:21.595Z,43.82
2019-05-15T23:01:49.799Z,43.25
2019-05-15T23:04:18.112Z,42.80
2019-05-15T23:06:45.450Z,42.07
2019-05-15T23:09:12.561Z,41.85
2019-05-15T23:11:39.775Z,42.33
2019-05-15T23:14:08.135Z,42.82
2019-05-15T23:16:35.449Z,43.39
2019-05-15T23:19:02.636Z,43.64
2019-05-15T23:21:29.669Z,43.42
2019-05-15T23:23:57.920Z,42.32
2019-05-15T23:26:24.950Z,42.61
2019-05-15T23:28:53.116Z,43.53
2019-05-15T23:31:20.244Z,43.88
2019-05-15T23:33:48.935Z,44.28
2019-05-15T23:36:17.889Z,45.10
2019-05-15T23:38:44.968Z,44.54
2019-05-15T23:41:13.906Z,45.16
2019-05-15T23:43:40.945Z,46.29
2019-05-15T23:46:08.480Z,46.44
2019-05-15T23:48:37.707Z,46.62
2019-05-15T23:51:05.333Z,47.11
2019-05-15T23:53:32.450Z,47.51
2019-05-15T23:56:01.109Z,47.32
2019-05-15T23:58:29.203Z,47.70
